createdAt,value
2017-12-20T00:01:46.779Z,23.03
2017-12-20T00:04:14.983Z,25.53
2017-12-20T00:06:43.182Z,24.37
2017-12-20T00:09:10.612Z,27.07
2017-12-20T00:11:38.044Z,25.13
2017-12-20T00:14:06.227Z,22.30
2017-12-20T00:16:33.659Z,18.90
2017-12-20T00:19:01.100Z,18.83
2017-12-20T00:21:28.524Z,20.13
2017-12-20T00:23:56.717Z,18.63
2017-12-20T00:26:24.149Z,20.77
2017-12-20T00:28:51.575Z,20.17
2017-12-20T00:31:19.000Z,21.47
2017-12-20T00:33:47.224Z,18.53
2017-12-20T00:36:14.651Z,21.50
2017-12-20T00:38:42.068Z,22.67
2017-12-20T00:41:09.487Z,21.67
2017-12-20T00:43:36.928Z,23.73
2017-12-20T00:46:05.116Z,23.53
2017-12-20T00:48:32.539Z,24.17
2017-12-20T00:50:59.963Z,23.97
2017-12-20T00:53:28.191Z,21.83
2017-12-20T00:55:55.585Z,20.27
2017-12-20T00:58:23.008Z,24.60
2017-12-20T01:00:51.196Z,23.10
2017-12-20T01:03:18.615Z,18.60
2017-12-20T01:05:46.051Z,23.03
2017-12-20T01:08:14.236Z,20.80
2017-12-20T01:10:41.655Z,23.17
2017-12-20T01:13:09.071Z,21.10
2017-12-20T01:15:36.499Z,21.70
2017-12-20T01:18:03.926Z,23.37
2017-12-20T01:20:31.348Z,19.40
2017-12-20T01:22:58.767Z,19.93
2017-12-20T01:25:26.194Z,22.93
2017-12-20T01:27:54.384Z,25.97
2017-12-20T01:30:21.808Z,23.50
2017-12-20T01:32:49.228Z,28.27
2017-12-20T01:35:17.420Z,29.13
2017-12-20T01:37:44.848Z,33.90
2017-12-20T01:40:13.032Z,35.27
2017-12-20T01:42:40.469Z,39.10
2017-12-20T01:45:07.904Z,36.40
2017-12-20T01:47:35.335Z,37.27
2017-12-20T01:50:02.824Z,42.43
2017-12-20T01:52:30.238Z,37.57
2017-12-20T01:54:57.660Z,32.90
2017-12-20T01:57:25.079Z,37.97
2017-12-20T01:59:53.264Z,33.20
2017-12-20T02:02:20.697Z,35.63
2017-12-20T02:04:48.883Z,32.30
2017-12-20T02:07:16.300Z,33.87
2017-12-20T02:09:43.740Z,31.83
2017-12-20T02:12:11.912Z,35.53
2017-12-20T02:14:39.348Z,41.17
2017-12-20T02:17:06.817Z,32.57
2017-12-20T02:19:34.220Z,36.60
2017-12-20T02:22:01.651Z,34.77
2017-12-20T02:24:29.839Z,40.40
2017-12-20T02:26:57.256Z,30.93
2017-12-20T02:29:25.444Z,30.93
2017-12-20T02:31:52.876Z,30.80
2017-12-20T02:34:20.306Z,30.63
2017-12-20T02:36:47.724Z,30.93
2017-12-20T02:39:15.152Z,31.00
2017-12-20T02:41:42.588Z,27.93
2017-12-20T02:44:10.012Z,34.20
2017-12-20T02:46:37.433Z,28.50
2017-12-20T02:49:04.856Z,27.07
2017-12-20T02:51:33.040Z,31.47
2017-12-20T02:54:00.455Z,29.60
2017-12-20T02:56:27.884Z,28.27
2017-12-20T02:58:56.100Z,27.43
2017-12-20T03:01:23.520Z,24.47
2017-12-20T03:03:50.975Z,22.83
2017-12-20T03:06:18.408Z,21.40
2017-12-20T03:08:45.823Z,20.67
2017-12-20T03:11:13.257Z,20.93
2017-12-20T03:13:40.688Z,21.73
2017-12-20T03:16:08.871Z,20.57
2017-12-20T03:18:36.307Z,19.43
2017-12-20T03:21:03.731Z,21.83
2017-12-20T03:23:31.939Z,21.17
2017-12-20T03:25:59.368Z,21.67
2017-12-20T03:28:26.788Z,23.10
2017-12-20T03:30:54.213Z,25.43
2017-12-20T03:33:22.408Z,27.27
2017-12-20T03:35:49.825Z,24.07
2017-12-20T03:38:18.021Z,21.27
2017-12-20T03:40:45.433Z,20.93
2017-12-20T03:43:12.852Z,21.53
2017-12-20T03:45:41.040Z,20.03
2017-12-20T03:48:08.467Z,18.63
2017-12-20T03:50:36.647Z,20.37
2017-12-20T03:53:04.068Z,21.30
2017-12-20T03:55:31.491Z,17.83
2017-12-20T03:57:59.920Z,20.33
2017-12-20T04:00:27.340Z,19.43
2017-12-20T04:02:54.763Z,19.80
2017-12-20T04:05:22.181Z,17.63
2017-12-20T04:07:50.398Z,16.30
2017-12-20T04:10:17.816Z,21.00
2017-12-20T04:12:45.252Z,14.80
2017-12-20T04:15:12.683Z,15.20
2017-12-20T04:17:40.107Z,15.73
2017-12-20T04:20:08.299Z,16.80
2017-12-20T04:22:35.728Z,16.50
2017-12-20T04:25:03.146Z,20.20
2017-12-20T04:27:31.334Z,21.23
2017-12-20T04:29:58.759Z,24.77
2017-12-20T04:32:26.948Z,22.37
2017-12-20T04:34:54.376Z,23.40
2017-12-20T04:37:21.795Z,21.10
2017-12-20T04:39:49.987Z,29.83
2017-12-20T04:42:17.416Z,32.93
2017-12-20T04:44:44.835Z,24.57
2017-12-20T04:47:13.019Z,28.80
2017-12-20T04:49:40.450Z,23.77
2017-12-20T04:52:07.860Z,23.43
2017-12-20T04:54:35.290Z,26.77
2017-12-20T04:57:02.718Z,23.70
2017-12-20T04:59:30.137Z,25.43
2017-12-20T05:01:57.556Z,28.07
2017-12-20T05:04:24.981Z,26.20
2017-12-20T05:06:53.167Z,26.93
2017-12-20T05:09:20.599Z,32.53
2017-12-20T05:11:48.016Z,30.23
2017-12-20T05:14:16.204Z,28.60
2017-12-20T05:16:43.624Z,28.93
2017-12-20T05:19:11.827Z,30.17
2017-12-20T05:21:39.243Z,36.07
2017-12-20T05:24:06.668Z,33.63
2017-12-20T05:26:34.858Z,27.13
2017-12-20T05:29:02.271Z,22.63
2017-12-20T05:31:30.473Z,23.43
2017-12-20T05:33:58.017Z,21.77
2017-12-20T05:36:25.411Z,25.40
2017-12-20T05:38:53.612Z,26.57
2017-12-20T05:41:21.030Z,30.13
2017-12-20T05:43:48.452Z,28.07
2017-12-20T05:46:16.644Z,25.20
2017-12-20T05:48:44.064Z,25.97
2017-12-20T05:51:11.480Z,30.97
2017-12-20T05:53:39.672Z,27.93
2017-12-20T05:56:07.088Z,25.50
2017-12-20T05:58:35.292Z,21.77
2017-12-20T06:01:02.708Z,20.97
2017-12-20T06:03:30.128Z,25.80
2017-12-20T06:05:58.344Z,22.20
2017-12-20T06:08:25.764Z,22.23
2017-12-20T06:10:53.179Z,19.70
2017-12-20T06:13:21.367Z,20.13
2017-12-20T06:15:48.787Z,19.83
2017-12-20T06:18:16.208Z,21.13
2017-12-20T06:20:44.395Z,20.80
2017-12-20T06:23:11.811Z,19.60
2017-12-20T06:25:39.992Z,19.37
2017-12-20T06:28:07.416Z,19.67
2017-12-20T06:30:35.604Z,20.00
2017-12-20T06:33:03.045Z,20.10
2017-12-20T06:35:30.511Z,18.37
2017-12-20T06:37:57.936Z,18.00
2017-12-20T06:40:25.347Z,17.93
2017-12-20T06:42:52.771Z,20.33
2017-12-20T06:45:20.995Z,20.67
2017-12-20T06:47:48.419Z,20.17
2017-12-20T06:50:15.884Z,19.80
2017-12-20T06:52:43.315Z,43.93
2017-12-20T06:55:10.741Z,14.70
2017-12-20T06:57:38.164Z,15.03
2017-12-20T07:00:05.592Z,14.30
2017-12-20T07:02:33.775Z,14.07
2017-12-20T07:05:01.207Z,18.20
2017-12-20T07:07:28.640Z,19.90
2017-12-20T07:09:56.828Z,16.17
2017-12-20T07:12:24.295Z,21.43
2017-12-20T07:14:51.735Z,17.43
2017-12-20T07:17:19.156Z,17.40
2017-12-20T07:19:46.895Z,16.20
2017-12-20T07:22:14.360Z,15.50
2017-12-20T07:24:41.788Z,16.50
2017-12-20T07:27:09.215Z,17.77
2017-12-20T07:29:36.648Z,19.03
2017-12-20T07:32:04.063Z,15.90
2017-12-20T07:34:32.260Z,19.20
2017-12-20T07:36:59.684Z,16.00
2017-12-20T07:39:27.112Z,18.23
2017-12-20T07:41:55.295Z,16.20
2017-12-20T07:44:22.720Z,15.13
2017-12-20T07:46:50.899Z,18.60
2017-12-20T07:49:18.381Z,19.77
2017-12-20T07:51:45.784Z,16.10
2017-12-20T07:54:13.212Z,15.70
2017-12-20T07:56:40.628Z,15.50
2017-12-20T07:59:08.840Z,15.77
2017-12-20T08:01:36.276Z,17.70
2017-12-20T08:04:03.696Z,16.67
2017-12-20T08:06:31.128Z,15.50
2017-12-20T08:08:59.304Z,14.57
2017-12-20T08:11:26.729Z,14.70
2017-12-20T08:13:54.916Z,14.70
2017-12-20T08:16:22.340Z,18.10
2017-12-20T08:18:49.760Z,14.03
2017-12-20T08:21:17.951Z,15.00
2017-12-20T08:23:45.415Z,11.03
2017-12-20T08:26:12.836Z,14.83
2017-12-20T08:28:40.249Z,11.00
2017-12-20T08:31:08.453Z,13.07
2017-12-20T08:33:35.872Z,12.13
2017-12-20T08:36:03.299Z,11.63
2017-12-20T08:38:30.719Z,15.20
2017-12-20T08:40:58.904Z,11.77
2017-12-20T08:43:26.319Z,12.17
2017-12-20T08:45:54.503Z,10.40
2017-12-20T08:48:21.928Z,12.47
2017-12-20T08:50:50.109Z,10.07
2017-12-20T08:53:17.535Z,14.43
2017-12-20T08:55:45.016Z,10.07
2017-12-20T08:58:12.432Z,9.93
2017-12-20T09:00:39.854Z,11.93
2017-12-20T09:03:08.058Z,9.80
2017-12-20T09:05:35.487Z,10.87
2017-12-20T09:08:02.896Z,9.63
2017-12-20T09:10:31.078Z,10.27
2017-12-20T09:12:58.540Z,9.90
2017-12-20T09:15:25.964Z,10.40
2017-12-20T09:17:53.392Z,12.67
2017-12-20T09:20:20.808Z,10.10
2017-12-20T09:22:48.996Z,11.67
2017-12-20T09:25:16.407Z,10.80
2017-12-20T09:27:44.591Z,15.30
2017-12-20T09:30:12.003Z,10.40
2017-12-20T09:32:39.428Z,10.03
2017-12-20T09:35:06.844Z,10.87
2017-12-20T09:37:34.269Z,8.87
2017-12-20T09:40:01.692Z,9.03
2017-12-20T09:42:29.872Z,7.70
2017-12-20T09:44:57.297Z,9.50
2017-12-20T09:47:24.706Z,7.60
2017-12-20T09:49:52.883Z,8.37
2017-12-20T09:52:21.063Z,7.90
2017-12-20T09:54:48.505Z,11.93
2017-12-20T09:57:15.920Z,11.47
2017-12-20T09:59:44.096Z,8.03
2017-12-20T10:02:11.510Z,8.80
2017-12-20T10:04:38.923Z,7.60
2017-12-20T10:07:06.339Z,9.43
2017-12-20T10:09:33.796Z,7.03
2017-12-20T10:12:01.213Z,7.50
2017-12-20T10:14:28.623Z,6.70
2017-12-20T10:16:56.800Z,7.27
2017-12-20T10:19:24.211Z,6.40
2017-12-20T10:21:52.431Z,6.93
2017-12-20T10:24:19.859Z,7.37
2017-12-20T10:26:47.275Z,6.37
2017-12-20T10:29:15.459Z,8.67
2017-12-20T10:31:42.916Z,7.90
2017-12-20T10:34:10.340Z,17.70
2017-12-20T10:36:37.751Z,7.73
2017-12-20T10:39:05.932Z,7.63
2017-12-20T10:41:33.344Z,7.10
2017-12-20T10:44:01.540Z,8.50
2017-12-20T10:46:29.012Z,10.07
2017-12-20T10:48:56.443Z,10.90
2017-12-20T10:51:23.856Z,9.30
2017-12-20T10:53:51.323Z,8.60
2017-12-20T10:56:18.735Z,9.43
2017-12-20T10:58:46.148Z,9.93
2017-12-20T11:01:14.339Z,11.40
2017-12-20T11:03:41.748Z,8.07
2017-12-20T11:06:09.935Z,10.27
2017-12-20T11:08:37.343Z,8.83
2017-12-20T11:11:04.960Z,8.50
2017-12-20T11:13:32.371Z,12.07
2017-12-20T11:15:59.799Z,9.67
2017-12-20T11:18:27.223Z,10.63
2017-12-20T11:20:55.416Z,10.93
2017-12-20T11:23:22.831Z,11.20
2017-12-20T11:25:51.019Z,11.27
2017-12-20T11:28:18.437Z,12.40
2017-12-20T11:30:46.620Z,12.17
2017-12-20T11:33:14.052Z,15.23
2017-12-20T11:35:41.468Z,13.00
2017-12-20T11:38:09.668Z,12.23
2017-12-20T11:40:37.091Z,11.90
2017-12-20T11:43:04.504Z,11.50
2017-12-20T11:45:32.710Z,12.03
2017-12-20T11:48:00.132Z,12.00
2017-12-20T11:50:28.316Z,12.10
2017-12-20T11:52:55.763Z,16.00
2017-12-20T11:55:23.190Z,19.50
2017-12-20T11:57:50.608Z,14.33
2017-12-20T12:00:18.031Z,11.63
2017-12-20T12:02:46.227Z,15.03
2017-12-20T12:05:13.652Z,12.83
2017-12-20T12:07:41.106Z,15.60
2017-12-20T12:10:09.266Z,13.37
2017-12-20T12:12:36.680Z,12.03
2017-12-20T12:15:04.884Z,12.07
2017-12-20T12:17:32.327Z,10.37
2017-12-20T12:19:59.748Z,11.43
2017-12-20T12:22:27.212Z,11.77
2017-12-20T12:24:54.628Z,11.07
2017-12-20T12:27:22.053Z,11.80
2017-12-20T12:29:49.468Z,13.67
2017-12-20T12:32:17.668Z,17.53
2017-12-20T12:34:45.088Z,11.33
2017-12-20T12:37:13.273Z,11.43
2017-12-20T12:39:40.696Z,11.33
2017-12-20T12:42:08.119Z,11.93
2017-12-20T12:44:35.551Z,11.43
2017-12-20T12:47:03.739Z,12.77
2017-12-20T12:49:31.155Z,15.07
2017-12-20T12:51:58.576Z,13.80
2017-12-20T12:54:25.992Z,11.63
2017-12-20T12:56:53.407Z,11.60
2017-12-20T12:59:20.851Z,11.27
2017-12-20T13:01:48.287Z,12.23
2017-12-20T13:04:15.717Z,11.50
2017-12-20T13:06:43.916Z,11.30
2017-12-20T13:09:11.332Z,11.37
2017-12-20T13:11:38.766Z,13.57
2017-12-20T13:14:06.167Z,12.77
2017-12-20T13:16:33.598Z,14.17
2017-12-20T13:19:01.018Z,14.47
2017-12-20T13:21:28.429Z,13.07
2017-12-20T13:23:56.615Z,13.13
2017-12-20T13:26:24.031Z,13.67
2017-12-20T13:28:51.455Z,13.77
2017-12-20T13:31:19.640Z,12.00
2017-12-20T13:33:47.075Z,15.73
2017-12-20T13:36:14.492Z,16.17
2017-12-20T13:38:42.680Z,17.53
2017-12-20T13:41:10.100Z,16.80
2017-12-20T13:43:38.296Z,16.57
2017-12-20T13:46:05.715Z,18.13
2017-12-20T13:48:33.139Z,18.73
2017-12-20T13:51:01.328Z,17.07
2017-12-20T13:53:28.756Z,18.50
2017-12-20T13:55:56.192Z,18.93
2017-12-20T13:58:24.376Z,15.93
2017-12-20T14:00:51.840Z,15.63
2017-12-20T14:03:19.264Z,16.00
2017-12-20T14:05:46.680Z,17.57
2017-12-20T14:08:14.860Z,12.63
2017-12-20T14:10:42.281Z,12.50
2017-12-20T14:13:09.797Z,11.17
2017-12-20T14:15:37.171Z,10.50
2017-12-20T14:18:04.592Z,12.73
2017-12-20T14:20:32.803Z,11.73
2017-12-20T14:23:00.232Z,12.73
2017-12-20T14:25:27.684Z,13.33
2017-12-20T14:27:55.112Z,14.30
2017-12-20T14:30:22.528Z,13.67
2017-12-20T14:32:49.961Z,12.77
2017-12-20T14:35:18.140Z,11.17
2017-12-20T14:37:45.556Z,11.47
2017-12-20T14:40:13.744Z,12.70
2017-12-20T14:42:41.176Z,12.47
2017-12-20T14:45:08.609Z,13.90
2017-12-20T14:47:36.787Z,12.13
2017-12-20T14:50:04.204Z,11.07
2017-12-20T14:52:32.391Z,12.47
2017-12-20T14:54:59.811Z,14.00
2017-12-20T14:57:27.224Z,12.43
2017-12-20T14:59:55.420Z,14.47
2017-12-20T15:02:22.840Z,13.47
2017-12-20T15:04:51.032Z,13.30
2017-12-20T15:07:18.443Z,14.23
2017-12-20T15:09:46.660Z,11.57
2017-12-20T15:12:14.088Z,11.77
2017-12-20T15:14:41.516Z,11.90
2017-12-20T15:17:08.936Z,23.40
2017-12-20T15:19:36.368Z,18.43
2017-12-20T15:22:04.552Z,12.93
2017-12-20T15:24:31.976Z,17.37
2017-12-20T15:27:00.164Z,11.90
2017-12-20T15:29:27.583Z,12.73
2017-12-20T15:31:55.003Z,13.27
2017-12-20T15:34:23.188Z,11.27
2017-12-20T15:36:50.676Z,12.53
2017-12-20T15:39:18.098Z,11.63
2017-12-20T15:41:45.524Z,10.57
2017-12-20T15:44:12.943Z,13.13
2017-12-20T15:46:40.366Z,10.33
2017-12-20T15:49:08.588Z,11.30
2017-12-20T15:51:36.010Z,11.57
2017-12-20T15:54:03.424Z,10.17
2017-12-20T15:56:31.623Z,11.73
2017-12-20T15:58:59.047Z,13.40
2017-12-20T16:01:26.468Z,11.37
2017-12-20T16:03:53.951Z,11.77
2017-12-20T16:06:21.368Z,11.07
2017-12-20T16:08:48.779Z,12.47
2017-12-20T16:11:16.972Z,12.00
2017-12-20T16:13:44.412Z,11.83
2017-12-20T16:16:11.827Z,13.43
2017-12-20T16:18:40.008Z,12.90
2017-12-20T16:21:07.460Z,11.17
2017-12-20T16:23:34.872Z,11.40
2017-12-20T16:26:03.065Z,14.90
2017-12-20T16:28:30.499Z,12.10
2017-12-20T16:30:57.920Z,14.53
2017-12-20T16:33:25.347Z,12.20
2017-12-20T16:35:53.607Z,11.80
2017-12-20T16:38:21.013Z,12.70
2017-12-20T16:40:48.428Z,13.43
2017-12-20T16:43:15.847Z,13.63
2017-12-20T16:45:43.267Z,13.20
2017-12-20T16:48:11.464Z,17.07
2017-12-20T16:50:38.876Z,15.50
2017-12-20T16:53:07.114Z,16.70
2017-12-20T16:55:34.524Z,13.90
2017-12-20T16:58:01.944Z,13.27
2017-12-20T17:00:29.369Z,11.93
2017-12-20T17:02:56.783Z,11.60
2017-12-20T17:05:24.967Z,14.60
2017-12-20T17:07:52.443Z,14.13
2017-12-20T17:10:19.871Z,16.30
2017-12-20T17:12:47.296Z,14.70
2017-12-20T17:15:14.716Z,21.87
2017-12-20T17:17:42.996Z,12.50
2017-12-20T17:20:10.407Z,12.60
2017-12-20T17:22:37.833Z,12.00
2017-12-20T17:25:05.254Z,11.60
2017-12-20T17:27:32.673Z,13.47
2017-12-20T17:30:00.139Z,12.80
2017-12-20T17:32:27.571Z,12.37
2017-12-20T17:34:55.020Z,13.27
2017-12-20T17:37:22.457Z,11.57
2017-12-20T17:39:49.868Z,13.37
2017-12-20T17:42:17.295Z,12.80
2017-12-20T17:44:45.471Z,10.33
2017-12-20T17:47:12.944Z,10.53
2017-12-20T17:49:40.368Z,10.83
2017-12-20T17:52:07.784Z,11.97
2017-12-20T17:54:36.012Z,13.47
2017-12-20T17:57:03.423Z,12.93
2017-12-20T17:59:30.844Z,12.87
2017-12-20T18:01:58.260Z,12.17
2017-12-20T18:04:26.492Z,12.63
2017-12-20T18:06:53.955Z,12.40
2017-12-20T18:09:21.364Z,10.23
2017-12-20T18:11:48.783Z,12.10
2017-12-20T18:14:16.251Z,11.10
2017-12-20T18:16:43.733Z,11.57
2017-12-20T18:19:11.132Z,9.70
2017-12-20T18:21:38.571Z,22.93
2017-12-20T18:24:06.008Z,45.67
2017-12-20T18:26:33.432Z,54.60
2017-12-20T18:29:00.907Z,15.93
2017-12-20T18:31:28.324Z,14.23
2017-12-20T18:33:55.775Z,18.07
2017-12-20T18:36:23.263Z,17.73
2017-12-20T18:38:50.683Z,19.10
2017-12-20T18:41:18.105Z,20.30
2017-12-20T18:43:45.578Z,21.50
2017-12-20T18:46:12.977Z,17.93
2017-12-20T18:48:40.450Z,17.80
2017-12-20T18:51:07.905Z,13.63
2017-12-20T18:53:35.316Z,16.07
2017-12-20T18:56:02.786Z,13.87
2017-12-20T18:58:30.320Z,11.50
2017-12-20T19:00:57.759Z,13.00
2017-12-20T19:03:25.257Z,12.40
2017-12-20T19:05:52.738Z,12.73
2017-12-20T19:08:20.217Z,11.50
2017-12-20T19:10:49.122Z,12.07
2017-12-20T19:13:16.600Z,13.37
2017-12-20T19:15:44.008Z,12.73
2017-12-20T19:18:11.428Z,13.43
2017-12-20T19:20:38.898Z,13.43
2017-12-20T19:23:06.303Z,13.43
2017-12-20T19:25:33.773Z,14.37
2017-12-20T19:28:01.184Z,14.83
2017-12-20T19:30:29.442Z,15.50
2017-12-20T19:32:56.904Z,15.97
2017-12-20T19:35:25.127Z,15.43
2017-12-20T19:37:52.580Z,16.23
2017-12-20T19:40:20.756Z,16.63
2017-12-20T19:42:48.227Z,19.20
2017-12-20T19:45:15.732Z,17.77
2017-12-20T19:47:43.950Z,19.07
2017-12-20T19:50:11.403Z,19.13
2017-12-20T19:52:38.863Z,20.33
2017-12-20T19:55:06.419Z,19.53
2017-12-20T19:57:34.675Z,20.10
2017-12-20T20:00:02.931Z,18.30
2017-12-20T20:02:31.891Z,17.70
2017-12-20T20:04:59.351Z,18.37
2017-12-20T20:07:26.756Z,18.97
2017-12-20T20:09:54.180Z,18.23
2017-12-20T20:12:21.686Z,18.00
2017-12-20T20:14:49.920Z,16.27
2017-12-20T20:17:17.371Z,15.80
2017-12-20T20:19:44.835Z,14.97
2017-12-20T20:22:13.058Z,16.53
2017-12-20T20:24:40.527Z,15.50
2017-12-20T20:27:08.747Z,16.23
2017-12-20T20:29:36.242Z,17.80
2017-12-20T20:32:04.467Z,16.20
2017-12-20T20:34:31.931Z,17.40
2017-12-20T20:37:00.163Z,15.03
2017-12-20T20:39:27.623Z,15.23
2017-12-20T20:41:55.812Z,15.50
2017-12-20T20:44:23.339Z,16.50
2017-12-20T20:46:51.562Z,15.23
2017-12-20T20:49:19.020Z,15.80
2017-12-20T20:51:46.475Z,15.83
2017-12-20T20:54:13.929Z,15.80
2017-12-20T20:56:42.108Z,15.37
2017-12-20T20:59:09.579Z,15.83
2017-12-20T21:01:37.007Z,14.20
2017-12-20T21:04:04.483Z,16.43
2017-12-20T21:06:32.055Z,14.17
2017-12-20T21:09:00.300Z,12.57
2017-12-20T21:11:27.764Z,14.30
2017-12-20T21:13:55.969Z,13.23
2017-12-20T21:16:23.422Z,13.57
2017-12-20T21:18:50.891Z,13.07
2017-12-20T21:21:18.347Z,11.93
2017-12-20T21:23:46.515Z,11.13
2017-12-20T21:26:13.984Z,10.47
2017-12-20T21:28:41.440Z,10.83
2017-12-20T21:31:08.904Z,11.10
2017-12-20T21:33:36.363Z,10.97
2017-12-20T21:36:04.536Z,10.53
2017-12-20T21:38:32.122Z,11.77
2017-12-20T21:40:59.575Z,11.50
2017-12-20T21:43:27.034Z,10.23
2017-12-20T21:45:54.440Z,10.40
2017-12-20T21:48:21.876Z,9.97
2017-12-20T21:50:49.364Z,10.03
2017-12-20T21:53:16.814Z,11.20
2017-12-20T21:55:44.275Z,9.97
2017-12-20T21:58:12.507Z,12.10
2017-12-20T22:00:40.692Z,11.93
2017-12-20T22:03:08.198Z,11.30
2017-12-20T22:05:35.657Z,11.17
2017-12-20T22:08:03.910Z,9.63
2017-12-20T22:10:31.477Z,11.67
2017-12-20T22:12:59.715Z,11.90
2017-12-20T22:15:27.305Z,10.90
2017-12-20T22:17:54.763Z,11.07
2017-12-20T22:20:22.187Z,11.60
2017-12-20T22:22:49.651Z,11.67
2017-12-20T22:25:17.110Z,12.93
2017-12-20T22:27:44.549Z,12.10
2017-12-20T22:30:12.014Z,11.40
2017-12-20T22:32:39.468Z,12.47
2017-12-20T22:35:06.917Z,11.50
2017-12-20T22:37:35.167Z,8.37
2017-12-20T22:40:02.618Z,10.53
2017-12-20T22:42:30.853Z,10.20
2017-12-20T22:44:58.290Z,9.30
2017-12-20T22:47:25.846Z,9.23
2017-12-20T22:49:53.266Z,10.30
2017-12-20T22:52:20.684Z,10.17
2017-12-20T22:54:48.155Z,9.63
2017-12-20T22:57:15.576Z,10.27
2017-12-20T22:59:43.029Z,10.03
2017-12-20T23:02:10.471Z,9.87
2017-12-20T23:04:37.926Z,9.43
2017-12-20T23:07:05.386Z,10.10
2017-12-20T23:09:33.606Z,10.33
2017-12-20T23:12:01.012Z,10.10
2017-12-20T23:14:28.480Z,11.13
2017-12-20T23:16:55.942Z,9.70
2017-12-20T23:19:23.347Z,11.50
2017-12-20T23:21:50.780Z,9.97
2017-12-20T23:24:18.237Z,10.03
2017-12-20T23:26:45.639Z,9.80
2017-12-20T23:29:13.827Z,11.07
2017-12-20T23:31:41.249Z,11.20
2017-12-20T23:34:08.736Z,9.97
2017-12-20T23:36:36.164Z,10.07
2017-12-20T23:39:03.580Z,11.00
2017-12-20T23:41:31.037Z,12.60
2017-12-20T23:43:58.501Z,9.83
2017-12-20T23:46:25.908Z,9.80
2017-12-20T23:48:53.358Z,9.33
2017-12-20T23:51:20.820Z,9.50
2017-12-20T23:53:48.239Z,8.93
2017-12-20T23:56:15.648Z,9.07
2017-12-20T23:58:43.843Z,8.37
